Terminal Aerodrome Forecast
Issued by NWS Newport/Morehead City, NC

Home | Current Version | Previous Version | Text Only | Print | Product List | Glossary On
Versions: 1 2 3 4 5 6 7 8 9 10 11 12
000
FTUS42 KMHX 230500
TAFEWN
TAF
KEWN 230521Z 2306/2406 VRB03KT P6SM BKN250
     FM231500 14007KT P6SM VCSH SCT020 BKN050
     FM232100 13010G16KT 3SM -SHRA BR OVC020
     FM240100 10012G20KT 5SM -TSRA OVC015CB=

USA.gov is the U.S. government's official web portal to all federal, state and local government web resources and services.